Map

Track Data

SID SEASON NUMBER BASIN SUBBASIN NAME ISO_TIME NATURE LAT LON WMO_WIND WMO_PRES WMO_AGENCY TRACK_TYPE DIST2LAND LANDFALL IFLAG USA_AGENCY USA_ATCF_ID USA_LAT USA_LON USA_RECORD USA_STATUS USA_WIND USA_PRES USA_SSHS USA_R34_NE USA_R34_SE USA_R34_SW USA_R34_NW USA_R50_NE USA_R50_SE USA_R50_SW USA_R50_NW USA_R64_NE USA_R64_SE USA_R64_SW USA_R64_NW USA_POCI USA_ROCI USA_RMW USA_EYE TOKYO_LAT TOKYO_LON TOKYO_GRADE TOKYO_WIND TOKYO_PRES TOKYO_R50_DIR TOKYO_R50_LONG TOKYO_R50_SHORT TOKYO_R30_DIR TOKYO_R30_LONG TOKYO_R30_SHORT TOKYO_LAND CMA_LAT CMA_LON CMA_CAT CMA_WIND CMA_PRES HKO_LAT HKO_LON HKO_CAT HKO_WIND HKO_PRES NEWDELHI_LAT NEWDELHI_LON NEWDELHI_GRADE NEWDELHI_WIND NEWDELHI_PRES NEWDELHI_CI NEWDELHI_DP NEWDELHI_POCI REUNION_LAT REUNION_LON REUNION_TYPE REUNION_WIND REUNION_PRES REUNION_TNUM REUNION_CI REUNION_RMW REUNION_R34_NE REUNION_R34_SE REUNION_R34_SW REUNION_R34_NW REUNION_R50_NE REUNION_R50_SE REUNION_R50_SW REUNION_R50_NW REUNION_R64_NE REUNION_R64_SE REUNION_R64_SW REUNION_R64_NW BOM_LAT BOM_LON BOM_TYPE BOM_WIND BOM_PRES BOM_TNUM BOM_CI BOM_RMW BOM_R34_NE BOM_R34_SE BOM_R34_SW BOM_R34_NW BOM_R50_NE BOM_R50_SE BOM_R50_SW BOM_R50_NW BOM_R64_NE BOM_R64_SE BOM_R64_SW BOM_R64_NW BOM_ROCI BOM_POCI BOM_EYE BOM_POS_METHOD BOM_PRES_METHOD NADI_LAT NADI_LON NADI_CAT NADI_WIND NADI_PRES WELLINGTON_LAT WELLINGTON_LON WELLINGTON_WIND WELLINGTON_PRES DS824_LAT DS824_LON DS824_STAGE DS824_WIND DS824_PRES TD9636_LAT TD9636_LON TD9636_STAGE TD9636_WIND TD9636_PRES TD9635_LAT TD9635_LON TD9635_WIND TD9635_PRES TD9635_ROCI NEUMANN_LAT NEUMANN_LON NEUMANN_CLASS NEUMANN_WIND NEUMANN_PRES MLC_LAT MLC_LON MLC_CLASS MLC_WIND MLC_PRES USA_GUST BOM_GUST BOM_GUST_PER REUNION_GUST REUNION_GUST_PER USA_SEAHGT USA_SEARAD_NE USA_SEARAD_SE USA_SEARAD_SW USA_SEARAD_NW STORM_SPEED STORM_DIR
1898303N15118 1898 56 WP MM NOT_NAMED 1898-10-30 04:00:00 NR 15.3000 118.400 main 159 159 __________O___ -1 15.3000 118.400 4 6 310
1898303N15118 1898 56 WP MM NOT_NAMED 1898-10-30 06:00:00 NR 15.4212 118.244 main 174 170 __________P___ -1 15.4212 118.244 4 6 309
1898303N15118 1898 56 WP MM NOT_NAMED 1898-10-30 09:00:00 NR 15.6012 118.019 main 187 184 __________P___ -1 15.6012 118.019 4 5 311
1898303N15118 1898 56 WP MM NOT_NAMED 1898-10-30 12:00:00 NR 15.7768 117.815 main 204 204 __________P___ -1 15.7768 117.815 4 5 314
1898303N15118 1898 56 WP MM NOT_NAMED 1898-10-30 15:00:00 NR 15.9456 117.646 main 224 224 __________P___ -1 15.9456 117.646 4 5 317
1898303N15118 1898 56 WP MM NOT_NAMED 1898-10-30 16:00:00 NR 16.0000 117.600 main 224 224 __________O___ -1 16.0000 117.600 4 4 324
1898303N15118 1898 56 WP MM NOT_NAMED 1898-10-30 18:00:00 NR 16.1056 117.524 main 235 235 __________P___ -1 16.1056 117.524 4 4 330
1898303N15118 1898 56 WP MM NOT_NAMED 1898-10-30 21:00:00 NR 16.2578 117.442 main 248 248 __________P___ -1 16.2578 117.442 4 3 336
1898303N15118 1898 56 WP MM NOT_NAMED 1898-10-31 00:00:00 NR 16.4053 117.381 main 249 249 __________P___ -1 16.4053 117.381 4 3 339
1898303N15118 1898 56 WP MM NOT_NAMED 1898-10-31 03:00:00 NR 16.5512 117.322 main 264 264 __________P___ -1 16.5512 117.322 4 3 338
1898303N15118 1898 56 WP MM NOT_NAMED 1898-10-31 04:00:00 NR 16.6000 117.300 main 264 264 __________O___ -1 16.6000 117.300 4 3 329
1898303N15118 1898 56 WP MM NOT_NAMED 1898-10-31 06:00:00 NR 16.6948 117.234 main 278 278 __________P___ -1 16.6948 117.234 4 3 325
1898303N15118 1898 56 WP MM NOT_NAMED 1898-10-31 09:00:00 NR 16.8368 117.128 main 291 291 __________P___ -1 16.8368 117.128 4 4 325
1898303N15118 1898 56 WP MM NOT_NAMED 1898-10-31 12:00:00 NR 16.9842 117.023 main 308 308 __________P___ -1 16.9842 117.023 4 4 328
1898303N15118 1898 56 WP MM NOT_NAMED 1898-10-31 15:00:00 NR 17.1433 116.928 main 321 324 __________P___ -1 17.1433 116.928 4 4 331
1898303N15118 1898 56 WP MM NOT_NAMED 1898-10-31 16:00:00 NR 17.2000 116.900 main 324 324 __________O___ -1 17.2000 116.900 4 4 339
1898303N15118 1898 56 WP MM NOT_NAMED 1898-10-31 18:00:00 NR 17.3245 116.853 main 328 338 __________P___ -1 17.3245 116.853 4 4 342
1898303N15118 1898 56 WP MM NOT_NAMED 1898-10-31 21:00:00 NR 17.5240 116.794 main 346 346 __________P___ -1 17.5240 116.794 4 4 347
1898303N15118 1898 56 WP MM NOT_NAMED 1898-11-01 00:00:00 NR 17.7304 116.748 main 365 365 __________P___ -1 17.7304 116.748 4 4 348
1898303N15118 1898 56 WP MM NOT_NAMED 1898-11-01 03:00:00 NR 17.9342 116.711 main 375 375 __________P___ -1 17.9342 116.711 4 4 354
1898303N15118 1898 56 WP MM NOT_NAMED 1898-11-01 04:00:00 NR 18.0000 116.700 main 380 380 __________O___ -1 18.0000 116.700 4 4 348
1898303N15118 1898 56 WP MM NOT_NAMED 1898-11-01 06:00:00 NR 18.1197 116.678 main 385 385 __________P___ -1 18.1197 116.678 4 4 352
1898303N15118 1898 56 WP MM NOT_NAMED 1898-11-01 09:00:00 NR 18.2930 116.650 main 388 399 __________P___ -1 18.2930 116.650 4 4 353
1898303N15118 1898 56 WP MM NOT_NAMED 1898-11-01 12:00:00 NR 18.4642 116.628 main 403 403 __________P___ -1 18.4642 116.628 4 4 353
1898303N15118 1898 56 WP MM NOT_NAMED 1898-11-01 15:00:00 NR 18.6395 116.607 main 406 406 __________P___ -1 18.6395 116.607 4 4 353
1898303N15118 1898 56 WP MM NOT_NAMED 1898-11-01 16:00:00 NR 18.7000 116.600 main 409 409 __________O___ -1 18.7000 116.600 4 4 357
1898303N15118 1898 56 WP MM NOT_NAMED 1898-11-01 18:00:00 NR 18.8249 116.585 main 413 413 __________P___ -1 18.8249 116.585 4 4 352
1898303N15118 1898 56 WP MM NOT_NAMED 1898-11-01 21:00:00 NR 19.0205 116.561 main 420 398 __________P___ -1 19.0205 116.561 4 4 353
1898303N15118 1898 56 WP MM NOT_NAMED 1898-11-02 00:00:00 NR 19.2235 116.535 main 398 376 __________P___ -1 19.2235 116.535 4 4 353
1898303N15118 1898 56 WP MM NOT_NAMED 1898-11-02 03:00:00 NR 19.4306 116.509 main 376 365 __________P___ -1 19.4306 116.509 4 4 351
1898303N15118 1898 56 WP MM NOT_NAMED 1898-11-02 04:00:00 NR 19.5000 116.500 main 365 __________O___ -1 19.5000 116.500 7 4 0

Digital Typhoon Data and Search

About IBTrACS Database

This database is a web-friendly format of International Best Track Archive for Climate Stewardship (IBTrACS), a global best track data archive curated by NOAA dating back to 1842.

Updated: 2021-12-06